sensor_id;sensor_type;location;lat;lon;timestamp;P1;durP1;ratioP1;P2;durP2;ratioP2
32242;SDS011;18731;42.830;24.390;2023-07-16T05:20:40;15.10;;;7.68;;
32242;SDS011;18731;42.830;24.390;2023-07-16T05:52:06;11.15;;;7.07;;
32242;SDS011;18731;42.830;24.390;2023-07-16T05:59:44;15.32;;;7.32;;
32242;SDS011;18731;42.830;24.390;2023-07-16T06:02:10;12.35;;;7.75;;
32242;SDS011;18731;42.830;24.390;2023-07-16T06:04:38;14.25;;;7.45;;
32242;SDS011;18731;42.830;24.390;2023-07-16T06:07:06;14.20;;;7.53;;
32242;SDS011;18731;42.830;24.390;2023-07-16T06:12:08;14.32;;;8.32;;
32242;SDS011;18731;42.830;24.390;2023-07-16T06:14:33;15.07;;;8.05;;
32242;SDS011;18731;42.830;24.390;2023-07-16T06:19:35;10.23;;;7.30;;
32242;SDS011;18731;42.830;24.390;2023-07-16T06:22:02;14.50;;;7.13;;
32242;SDS011;18731;42.830;24.390;2023-07-16T06:24:32;9.00;;;6.97;;
32242;SDS011;18731;42.830;24.390;2023-07-16T06:26:58;11.93;;;7.13;;
32242;SDS011;18731;42.830;24.390;2023-07-16T06:29:24;14.27;;;7.70;;
32242;SDS011;18731;42.830;24.390;2023-07-16T06:31:59;13.40;;;7.15;;
32242;SDS011;18731;42.830;24.390;2023-07-16T06:37:25;12.10;;;7.07;;
32242;SDS011;18731;42.830;24.390;2023-07-16T06:45:17;15.55;;;6.88;;
32242;SDS011;18731;42.830;24.390;2023-07-16T06:47:43;19.58;;;6.97;;
32242;SDS011;18731;42.830;24.390;2023-07-16T06:50:10;13.25;;;7.03;;
32242;SDS011;18731;42.830;24.390;2023-07-16T06:52:37;11.35;;;6.43;;
32242;SDS011;18731;42.830;24.390;2023-07-16T06:55:03;11.52;;;6.80;;
32242;SDS011;18731;42.830;24.390;2023-07-16T06:57:29;11.25;;;7.22;;
32242;SDS011;18731;42.830;24.390;2023-07-16T06:59:55;16.42;;;7.38;;
32242;SDS011;18731;42.830;24.390;2023-07-16T07:02:22;10.38;;;7.15;;
32242;SDS011;18731;42.830;24.390;2023-07-16T07:04:50;13.13;;;7.80;;
32242;SDS011;18731;42.830;24.390;2023-07-16T07:07:16;15.95;;;7.38;;
32242;SDS011;18731;42.830;24.390;2023-07-16T07:09:42;16.70;;;7.22;;
32242;SDS011;18731;42.830;24.390;2023-07-16T07:12:07;15.20;;;7.72;;
32242;SDS011;18731;42.830;24.390;2023-07-16T07:14:33;12.65;;;7.72;;
32242;SDS011;18731;42.830;24.390;2023-07-16T07:17:02;12.15;;;7.90;;
32242;SDS011;18731;42.830;24.390;2023-07-16T07:19:28;14.48;;;7.50;;
32242;SDS011;18731;42.830;24.390;2023-07-16T07:21:57;12.60;;;8.45;;
32242;SDS011;18731;42.830;24.390;2023-07-16T07:24:23;13.88;;;7.85;;
32242;SDS011;18731;42.830;24.390;2023-07-16T07:26:49;16.15;;;8.55;;
32242;SDS011;18731;42.830;24.390;2023-07-16T07:29:18;15.23;;;8.85;;
32242;SDS011;18731;42.830;24.390;2023-07-16T07:31:44;11.35;;;8.10;;
32242;SDS011;18731;42.830;24.390;2023-07-16T07:34:10;10.50;;;8.10;;
32242;SDS011;18731;42.830;24.390;2023-07-16T07:36:36;14.15;;;8.48;;
32242;SDS011;18731;42.830;24.390;2023-07-16T07:39:02;22.75;;;8.32;;
32242;SDS011;18731;42.830;24.390;2023-07-16T07:41:28;18.13;;;8.50;;
32242;SDS011;18731;42.830;24.390;2023-07-16T07:43:54;14.70;;;7.93;;
32242;SDS011;18731;42.830;24.390;2023-07-16T07:46:19;16.50;;;8.35;;
32242;SDS011;18731;42.830;24.390;2023-07-16T07:48:45;11.30;;;7.70;;
32242;SDS011;18731;42.830;24.390;2023-07-16T07:51:10;12.65;;;7.82;;
32242;SDS011;18731;42.830;24.390;2023-07-16T07:53:37;14.90;;;8.57;;
32242;SDS011;18731;42.830;24.390;2023-07-16T07:56:02;12.15;;;8.48;;
32242;SDS011;18731;42.830;24.390;2023-07-16T07:58:30;13.73;;;8.30;;
32242;SDS011;18731;42.830;24.390;2023-07-16T08:01:02;13.25;;;8.38;;
32242;SDS011;18731;42.830;24.390;2023-07-16T08:03:31;11.93;;;8.10;;
32242;SDS011;18731;42.830;24.390;2023-07-16T08:05:57;11.38;;;8.10;;
32242;SDS011;18731;42.830;24.390;2023-07-16T08:08:22;15.43;;;8.85;;
32242;SDS011;18731;42.830;24.390;2023-07-16T08:10:48;14.00;;;8.63;;
32242;SDS011;18731;42.830;24.390;2023-07-16T08:13:14;15.55;;;8.55;;
32242;SDS011;18731;42.830;24.390;2023-07-16T08:15:40;13.55;;;8.27;;
32242;SDS011;18731;42.830;24.390;2023-07-16T08:18:07;14.45;;;8.65;;
32242;SDS011;18731;42.830;24.390;2023-07-16T08:20:32;12.80;;;7.85;;
32242;SDS011;18731;42.830;24.390;2023-07-16T08:22:58;12.85;;;8.40;;
32242;SDS011;18731;42.830;24.390;2023-07-16T08:25:24;12.48;;;7.53;;
32242;SDS011;18731;42.830;24.390;2023-07-16T08:27:50;15.98;;;9.13;;
32242;SDS011;18731;42.830;24.390;2023-07-16T08:30:16;12.65;;;8.50;;
32242;SDS011;18731;42.830;24.390;2023-07-16T08:37:55;14.55;;;9.10;;
32242;SDS011;18731;42.830;24.390;2023-07-16T08:43:05;15.35;;;9.05;;
32242;SDS011;18731;42.830;24.390;2023-07-16T08:50:46;19.10;;;9.23;;
32242;SDS011;18731;42.830;24.390;2023-07-16T08:53:12;15.80;;;9.40;;
32242;SDS011;18731;42.830;24.390;2023-07-16T08:55:44;13.13;;;9.63;;
32242;SDS011;18731;42.830;24.390;2023-07-16T08:58:14;19.02;;;9.20;;
32242;SDS011;18731;42.830;24.390;2023-07-16T09:00:43;20.58;;;9.30;;
32242;SDS011;18731;42.830;24.390;2023-07-16T09:03:11;13.20;;;9.60;;
32242;SDS011;18731;42.830;24.390;2023-07-16T09:05:41;13.70;;;9.15;;
32242;SDS011;18731;42.830;24.390;2023-07-16T09:08:09;18.27;;;8.70;;
32242;SDS011;18731;42.830;24.390;2023-07-16T09:10:39;15.57;;;9.75;;
32242;SDS011;18731;42.830;24.390;2023-07-16T09:15:56;15.65;;;9.70;;
32242;SDS011;18731;42.830;24.390;2023-07-16T09:18:26;15.98;;;9.98;;
32242;SDS011;18731;42.830;24.390;2023-07-16T09:20:56;18.95;;;10.15;;
32242;SDS011;18731;42.830;24.390;2023-07-16T09:23:26;23.42;;;9.63;;
32242;SDS011;18731;42.830;24.390;2023-07-16T09:25:55;18.92;;;9.65;;
32242;SDS011;18731;42.830;24.390;2023-07-16T09:28:22;19.15;;;10.23;;
32242;SDS011;18731;42.830;24.390;2023-07-16T09:33:26;18.55;;;9.93;;
32242;SDS011;18731;42.830;24.390;2023-07-16T09:35:52;14.75;;;10.23;;
32242;SDS011;18731;42.830;24.390;2023-07-16T09:38:17;22.25;;;9.75;;
32242;SDS011;18731;42.830;24.390;2023-07-16T09:40:43;14.10;;;9.68;;
32242;SDS011;18731;42.830;24.390;2023-07-16T09:43:10;14.38;;;9.63;;
32242;SDS011;18731;42.830;24.390;2023-07-16T09:45:37;23.55;;;10.48;;
32242;SDS011;18731;42.830;24.390;2023-07-16T09:48:04;16.75;;;9.55;;
32242;SDS011;18731;42.830;24.390;2023-07-16T09:50:33;15.00;;;9.18;;
32242;SDS011;18731;42.830;24.390;2023-07-16T09:53:00;20.02;;;9.65;;
32242;SDS011;18731;42.830;24.390;2023-07-16T09:55:27;19.15;;;9.60;;
32242;SDS011;18731;42.830;24.390;2023-07-16T09:57:58;19.70;;;9.05;;
32242;SDS011;18731;42.830;24.390;2023-07-16T10:00:25;12.65;;;8.82;;
32242;SDS011;18731;42.830;24.390;2023-07-16T10:02:53;17.65;;;9.13;;
32242;SDS011;18731;42.830;24.390;2023-07-16T10:07:57;16.80;;;8.80;;
32242;SDS011;18731;42.830;24.390;2023-07-16T10:10:40;16.10;;;8.82;;
32242;SDS011;18731;42.830;24.390;2023-07-16T10:13:08;15.57;;;9.52;;
32242;SDS011;18731;42.830;24.390;2023-07-16T10:15:36;12.55;;;9.10;;
32242;SDS011;18731;42.830;24.390;2023-07-16T10:18:02;14.02;;;9.77;;
32242;SDS011;18731;42.830;24.390;2023-07-16T10:20:31;21.52;;;9.55;;
32242;SDS011;18731;42.830;24.390;2023-07-16T10:23:09;16.00;;;9.70;;
32242;SDS011;18731;42.830;24.390;2023-07-16T10:25:37;17.73;;;8.95;;
32242;SDS011;18731;42.830;24.390;2023-07-16T10:28:03;14.23;;;9.40;;
32242;SDS011;18731;42.830;24.390;2023-07-16T10:30:28;14.00;;;8.85;;
32242;SDS011;18731;42.830;24.390;2023-07-16T10:32:55;13.13;;;9.00;;
32242;SDS011;18731;42.830;24.390;2023-07-16T10:35:20;13.32;;;9.13;;
32242;SDS011;18731;42.830;24.390;2023-07-16T10:37:46;15.57;;;9.40;;
32242;SDS011;18731;42.830;24.390;2023-07-16T10:40:12;12.90;;;9.18;;
32242;SDS011;18731;42.830;24.390;2023-07-16T10:42:42;18.05;;;9.90;;
32242;SDS011;18731;42.830;24.390;2023-07-16T10:45:09;10.85;;;8.50;;
32242;SDS011;18731;42.830;24.390;2023-07-16T10:47:36;16.77;;;8.95;;
32242;SDS011;18731;42.830;24.390;2023-07-16T10:50:04;15.60;;;9.05;;
32242;SDS011;18731;42.830;24.390;2023-07-16T10:52:34;15.93;;;8.85;;
32242;SDS011;18731;42.830;24.390;2023-07-16T10:55:00;17.35;;;9.13;;
32242;SDS011;18731;42.830;24.390;2023-07-16T10:57:26;19.63;;;9.02;;
32242;SDS011;18731;42.830;24.390;2023-07-16T10:59:53;13.30;;;8.68;;
32242;SDS011;18731;42.830;24.390;2023-07-16T11:02:22;12.90;;;8.60;;
32242;SDS011;18731;42.830;24.390;2023-07-16T11:04:49;12.27;;;9.18;;
32242;SDS011;18731;42.830;24.390;2023-07-16T11:07:18;12.75;;;9.30;;
32242;SDS011;18731;42.830;24.390;2023-07-16T11:09:45;15.93;;;9.00;;
32242;SDS011;18731;42.830;24.390;2023-07-16T11:12:18;15.18;;;9.23;;
32242;SDS011;18731;42.830;24.390;2023-07-16T11:14:47;13.32;;;9.63;;
32242;SDS011;18731;42.830;24.390;2023-07-16T11:17:14;15.60;;;8.98;;
32242;SDS011;18731;42.830;24.390;2023-07-16T11:19:41;15.18;;;9.63;;
32242;SDS011;18731;42.830;24.390;2023-07-16T11:22:10;15.85;;;9.20;;
32242;SDS011;18731;42.830;24.390;2023-07-16T11:24:39;14.10;;;9.23;;
32242;SDS011;18731;42.830;24.390;2023-07-16T11:27:19;14.75;;;9.25;;
32242;SDS011;18731;42.830;24.390;2023-07-16T11:32:14;14.38;;;9.75;;
32242;SDS011;18731;42.830;24.390;2023-07-16T11:34:52;15.23;;;9.75;;
32242;SDS011;18731;42.830;24.390;2023-07-16T11:37:21;14.27;;;9.45;;
32242;SDS011;18731;42.830;24.390;2023-07-16T11:39:49;13.75;;;9.25;;
32242;SDS011;18731;42.830;24.390;2023-07-16T11:42:17;16.25;;;9.48;;
32242;SDS011;18731;42.830;24.390;2023-07-16T11:44:49;14.50;;;9.55;;
32242;SDS011;18731;42.830;24.390;2023-07-16T11:47:15;13.98;;;9.43;;
32242;SDS011;18731;42.830;24.390;2023-07-16T11:49:40;14.48;;;9.38;;
32242;SDS011;18731;42.830;24.390;2023-07-16T11:52:06;17.35;;;10.88;;
32242;SDS011;18731;42.830;24.390;2023-07-16T11:54:32;12.48;;;9.02;;
32242;SDS011;18731;42.830;24.390;2023-07-16T11:56:58;15.60;;;10.77;;
32242;SDS011;18731;42.830;24.390;2023-07-16T11:59:24;14.95;;;8.85;;
32242;SDS011;18731;42.830;24.390;2023-07-16T12:01:49;13.63;;;9.80;;
32242;SDS011;18731;42.830;24.390;2023-07-16T12:04:15;18.17;;;8.82;;
32242;SDS011;18731;42.830;24.390;2023-07-16T12:06:42;13.77;;;8.52;;
32242;SDS011;18731;42.830;24.390;2023-07-16T12:09:08;19.88;;;9.23;;
32242;SDS011;18731;42.830;24.390;2023-07-16T12:11:34;14.48;;;8.40;;
32242;SDS011;18731;42.830;24.390;2023-07-16T12:14:00;13.32;;;9.00;;
32242;SDS011;18731;42.830;24.390;2023-07-16T12:16:25;12.68;;;8.98;;
32242;SDS011;18731;42.830;24.390;2023-07-16T12:18:51;12.15;;;8.32;;
32242;SDS011;18731;42.830;24.390;2023-07-16T12:21:17;12.07;;;8.70;;
32242;SDS011;18731;42.830;24.390;2023-07-16T12:23:42;15.73;;;9.07;;
32242;SDS011;18731;42.830;24.390;2023-07-16T12:26:08;12.75;;;9.20;;
32242;SDS011;18731;42.830;24.390;2023-07-16T12:28:34;11.30;;;9.10;;
32242;SDS011;18731;42.830;24.390;2023-07-16T12:30:59;11.50;;;8.80;;
32242;SDS011;18731;42.830;24.390;2023-07-16T12:33:25;16.33;;;9.93;;
32242;SDS011;18731;42.830;24.390;2023-07-16T12:35:50;14.63;;;9.63;;
32242;SDS011;18731;42.830;24.390;2023-07-16T12:38:16;19.58;;;9.15;;
32242;SDS011;18731;42.830;24.390;2023-07-16T12:40:42;12.95;;;9.10;;
32242;SDS011;18731;42.830;24.390;2023-07-16T12:43:07;15.85;;;9.60;;
32242;SDS011;18731;42.830;24.390;2023-07-16T12:45:33;15.65;;;9.43;;
32242;SDS011;18731;42.830;24.390;2023-07-16T12:47:58;18.30;;;9.63;;
32242;SDS011;18731;42.830;24.390;2023-07-16T12:50:24;22.80;;;9.68;;
32242;SDS011;18731;42.830;24.390;2023-07-16T12:52:53;14.10;;;9.55;;
32242;SDS011;18731;42.830;24.390;2023-07-16T12:55:18;14.25;;;8.88;;
32242;SDS011;18731;42.830;24.390;2023-07-16T12:57:44;14.95;;;9.35;;
32242;SDS011;18731;42.830;24.390;2023-07-16T13:00:10;12.23;;;8.73;;
32242;SDS011;18731;42.830;24.390;2023-07-16T13:02:36;13.85;;;8.88;;
32242;SDS011;18731;42.830;24.390;2023-07-16T13:05:02;14.85;;;8.48;;
32242;SDS011;18731;42.830;24.390;2023-07-16T13:07:28;12.98;;;8.45;;
32242;SDS011;18731;42.830;24.390;2023-07-16T13:09:55;12.30;;;8.63;;
32242;SDS011;18731;42.830;24.390;2023-07-16T13:12:21;13.07;;;8.85;;
32242;SDS011;18731;42.830;24.390;2023-07-16T13:14:47;14.05;;;8.55;;
32242;SDS011;18731;42.830;24.390;2023-07-16T13:17:12;12.00;;;8.23;;
32242;SDS011;18731;42.830;24.390;2023-07-16T13:19:40;9.98;;;8.13;;
32242;SDS011;18731;42.830;24.390;2023-07-16T13:22:06;16.33;;;8.60;;
32242;SDS011;18731;42.830;24.390;2023-07-16T13:24:31;14.65;;;8.30;;
32242;SDS011;18731;42.830;24.390;2023-07-16T13:26:57;10.23;;;8.20;;
32242;SDS011;18731;42.830;24.390;2023-07-16T13:29:23;15.27;;;7.82;;
32242;SDS011;18731;42.830;24.390;2023-07-16T13:31:48;12.95;;;8.38;;
32242;SDS011;18731;42.830;24.390;2023-07-16T13:34:14;12.15;;;8.40;;
32242;SDS011;18731;42.830;24.390;2023-07-16T13:36:40;11.02;;;7.80;;
32242;SDS011;18731;42.830;24.390;2023-07-16T13:39:05;11.80;;;8.45;;
32242;SDS011;18731;42.830;24.390;2023-07-16T13:41:31;12.85;;;8.82;;
32242;SDS011;18731;42.830;24.390;2023-07-16T13:43:57;11.05;;;8.80;;
32242;SDS011;18731;42.830;24.390;2023-07-16T13:46:23;12.15;;;8.25;;
32242;SDS011;18731;42.830;24.390;2023-07-16T13:48:49;10.35;;;8.20;;
32242;SDS011;18731;42.830;24.390;2023-07-16T13:51:14;15.15;;;8.43;;
32242;SDS011;18731;42.830;24.390;2023-07-16T13:53:40;11.27;;;8.43;;
32242;SDS011;18731;42.830;24.390;2023-07-16T13:56:06;12.38;;;8.55;;
32242;SDS011;18731;42.830;24.390;2023-07-16T13:58:33;13.10;;;8.77;;
32242;SDS011;18731;42.830;24.390;2023-07-16T14:00:59;14.38;;;8.48;;
32242;SDS011;18731;42.830;24.390;2023-07-16T14:03:24;20.83;;;9.45;;
32242;SDS011;18731;42.830;24.390;2023-07-16T14:05:51;15.25;;;8.18;;
32242;SDS011;18731;42.830;24.390;2023-07-16T14:08:17;11.88;;;8.48;;
32242;SDS011;18731;42.830;24.390;2023-07-16T14:10:43;10.85;;;8.57;;
32242;SDS011;18731;42.830;24.390;2023-07-16T14:13:08;17.85;;;8.77;;
32242;SDS011;18731;42.830;24.390;2023-07-16T14:15:34;12.02;;;8.68;;
32242;SDS011;18731;42.830;24.390;2023-07-16T14:18:00;15.68;;;9.43;;
32242;SDS011;18731;42.830;24.390;2023-07-16T14:20:26;14.18;;;8.52;;
32242;SDS011;18731;42.830;24.390;2023-07-16T14:22:52;12.05;;;9.32;;
32242;SDS011;18731;42.830;24.390;2023-07-16T14:25:17;10.68;;;8.70;;
32242;SDS011;18731;42.830;24.390;2023-07-16T14:27:43;13.73;;;9.15;;
32242;SDS011;18731;42.830;24.390;2023-07-16T14:30:09;10.02;;;8.25;;
32242;SDS011;18731;42.830;24.390;2023-07-16T14:32:36;13.23;;;9.30;;
32242;SDS011;18731;42.830;24.390;2023-07-16T14:35:02;19.23;;;8.75;;
32242;SDS011;18731;42.830;24.390;2023-07-16T14:37:29;18.67;;;9.75;;
32242;SDS011;18731;42.830;24.390;2023-07-16T14:39:55;20.00;;;9.38;;
32242;SDS011;18731;42.830;24.390;2023-07-16T14:42:20;13.50;;;8.68;;
32242;SDS011;18731;42.830;24.390;2023-07-16T14:44:46;10.25;;;9.07;;
32242;SDS011;18731;42.830;24.390;2023-07-16T14:47:12;15.32;;;9.20;;
32242;SDS011;18731;42.830;24.390;2023-07-16T14:49:38;13.30;;;8.68;;
32242;SDS011;18731;42.830;24.390;2023-07-16T14:52:03;12.45;;;9.10;;
32242;SDS011;18731;42.830;24.390;2023-07-16T14:54:29;16.63;;;8.45;;
32242;SDS011;18731;42.830;24.390;2023-07-16T14:56:56;16.33;;;9.20;;
32242;SDS011;18731;42.830;24.390;2023-07-16T14:59:21;12.32;;;8.30;;
32242;SDS011;18731;42.830;24.390;2023-07-16T15:01:47;10.98;;;8.55;;
32242;SDS011;18731;42.830;24.390;2023-07-16T15:04:13;12.75;;;9.13;;
32242;SDS011;18731;42.830;24.390;2023-07-16T15:06:39;14.13;;;8.68;;
32242;SDS011;18731;42.830;24.390;2023-07-16T15:09:04;17.65;;;8.50;;
32242;SDS011;18731;42.830;24.390;2023-07-16T15:11:30;11.85;;;8.75;;
32242;SDS011;18731;42.830;24.390;2023-07-16T15:13:59;13.65;;;8.30;;
32242;SDS011;18731;42.830;24.390;2023-07-16T15:16:24;12.35;;;7.90;;
32242;SDS011;18731;42.830;24.390;2023-07-16T15:18:50;8.57;;;7.60;;
32242;SDS011;18731;42.830;24.390;2023-07-16T15:21:16;9.27;;;8.27;;
32242;SDS011;18731;42.830;24.390;2023-07-16T15:23:41;11.02;;;8.48;;
32242;SDS011;18731;42.830;24.390;2023-07-16T15:26:09;15.13;;;8.00;;
32242;SDS011;18731;42.830;24.390;2023-07-16T15:28:37;11.60;;;8.10;;
32242;SDS011;18731;42.830;24.390;2023-07-16T15:31:03;15.75;;;9.02;;
32242;SDS011;18731;42.830;24.390;2023-07-16T15:33:29;10.02;;;8.50;;
32242;SDS011;18731;42.830;24.390;2023-07-16T15:35:58;12.20;;;8.40;;
32242;SDS011;18731;42.830;24.390;2023-07-16T15:38:24;14.15;;;8.45;;
32242;SDS011;18731;42.830;24.390;2023-07-16T15:40:49;12.00;;;7.93;;
32242;SDS011;18731;42.830;24.390;2023-07-16T15:43:15;12.75;;;8.55;;
32242;SDS011;18731;42.830;24.390;2023-07-16T15:45:40;11.57;;;8.68;;
32242;SDS011;18731;42.830;24.390;2023-07-16T15:48:07;14.43;;;9.00;;
32242;SDS011;18731;42.830;24.390;2023-07-16T15:50:33;14.50;;;8.50;;
32242;SDS011;18731;42.830;24.390;2023-07-16T15:52:59;15.35;;;9.13;;
32242;SDS011;18731;42.830;24.390;2023-07-16T15:55:26;16.60;;;9.20;;
32242;SDS011;18731;42.830;24.390;2023-07-16T15:57:52;14.90;;;9.20;;
32242;SDS011;18731;42.830;24.390;2023-07-16T16:00:19;11.40;;;9.00;;
32242;SDS011;18731;42.830;24.390;2023-07-16T16:02:47;16.58;;;9.68;;
32242;SDS011;18731;42.830;24.390;2023-07-16T16:05:13;15.45;;;8.88;;
32242;SDS011;18731;42.830;24.390;2023-07-16T16:07:48;14.27;;;9.05;;
32242;SDS011;18731;42.830;24.390;2023-07-16T16:10:42;15.57;;;9.13;;
32242;SDS011;18731;42.830;24.390;2023-07-16T16:13:09;16.23;;;9.85;;
32242;SDS011;18731;42.830;24.390;2023-07-16T16:15:35;12.32;;;9.18;;
32242;SDS011;18731;42.830;24.390;2023-07-16T16:18:00;12.88;;;8.88;;
32242;SDS011;18731;42.830;24.390;2023-07-16T16:20:26;18.35;;;9.70;;
32242;SDS011;18731;42.830;24.390;2023-07-16T16:22:52;15.85;;;9.70;;
32242;SDS011;18731;42.830;24.390;2023-07-16T16:25:17;13.70;;;9.48;;
32242;SDS011;18731;42.830;24.390;2023-07-16T16:27:44;13.20;;;9.80;;
32242;SDS011;18731;42.830;24.390;2023-07-16T16:30:10;14.90;;;9.57;;
32242;SDS011;18731;42.830;24.390;2023-07-16T16:32:36;16.27;;;10.18;;
32242;SDS011;18731;42.830;24.390;2023-07-16T16:35:03;18.48;;;10.80;;
32242;SDS011;18731;42.830;24.390;2023-07-16T16:37:29;12.23;;;9.73;;
32242;SDS011;18731;42.830;24.390;2023-07-16T16:39:54;13.18;;;9.75;;
32242;SDS011;18731;42.830;24.390;2023-07-16T16:42:20;16.05;;;9.88;;
32242;SDS011;18731;42.830;24.390;2023-07-16T16:44:46;16.00;;;10.60;;
32242;SDS011;18731;42.830;24.390;2023-07-16T16:47:11;19.40;;;10.48;;
32242;SDS011;18731;42.830;24.390;2023-07-16T16:49:37;16.73;;;10.65;;
32242;SDS011;18731;42.830;24.390;2023-07-16T16:52:03;15.77;;;10.95;;
32242;SDS011;18731;42.830;24.390;2023-07-16T16:54:28;14.23;;;10.35;;
32242;SDS011;18731;42.830;24.390;2023-07-16T16:56:54;20.90;;;11.35;;
32242;SDS011;18731;42.830;24.390;2023-07-16T16:59:20;17.23;;;11.13;;
32242;SDS011;18731;42.830;24.390;2023-07-16T17:01:46;14.70;;;10.88;;
32242;SDS011;18731;42.830;24.390;2023-07-16T17:04:12;17.45;;;10.43;;
32242;SDS011;18731;42.830;24.390;2023-07-16T17:06:37;22.13;;;11.20;;
32242;SDS011;18731;42.830;24.390;2023-07-16T17:09:03;14.82;;;11.00;;
32242;SDS011;18731;42.830;24.390;2023-07-16T17:11:29;14.93;;;11.40;;
32242;SDS011;18731;42.830;24.390;2023-07-16T17:13:54;16.52;;;10.93;;
32242;SDS011;18731;42.830;24.390;2023-07-16T17:16:20;15.70;;;11.27;;
32242;SDS011;18731;42.830;24.390;2023-07-16T17:18:45;21.73;;;12.20;;
32242;SDS011;18731;42.830;24.390;2023-07-16T17:21:13;15.75;;;11.07;;
32242;SDS011;18731;42.830;24.390;2023-07-16T17:23:39;18.08;;;11.57;;
32242;SDS011;18731;42.830;24.390;2023-07-16T17:26:05;14.65;;;11.35;;
32242;SDS011;18731;42.830;24.390;2023-07-16T17:28:31;18.17;;;11.80;;
32242;SDS011;18731;42.830;24.390;2023-07-16T17:30:56;21.48;;;11.88;;
32242;SDS011;18731;42.830;24.390;2023-07-16T17:33:27;17.70;;;12.55;;
32242;SDS011;18731;42.830;24.390;2023-07-16T17:35:53;20.52;;;12.13;;
32242;SDS011;18731;42.830;24.390;2023-07-16T17:38:19;20.25;;;12.35;;
32242;SDS011;18731;42.830;24.390;2023-07-16T17:40:45;17.65;;;12.52;;
32242;SDS011;18731;42.830;24.390;2023-07-16T17:43:11;16.25;;;12.10;;
32242;SDS011;18731;42.830;24.390;2023-07-16T17:45:36;15.45;;;12.27;;
32242;SDS011;18731;42.830;24.390;2023-07-16T17:48:02;17.40;;;12.50;;
32242;SDS011;18731;42.830;24.390;2023-07-16T17:50:27;15.93;;;12.73;;
32242;SDS011;18731;42.830;24.390;2023-07-16T17:52:53;23.23;;;13.02;;
32242;SDS011;18731;42.830;24.390;2023-07-16T17:55:19;21.65;;;12.75;;
32242;SDS011;18731;42.830;24.390;2023-07-16T17:57:44;15.60;;;11.95;;
32242;SDS011;18731;42.830;24.390;2023-07-16T18:00:10;19.88;;;13.02;;
32242;SDS011;18731;42.830;24.390;2023-07-16T18:02:39;19.90;;;13.80;;
32242;SDS011;18731;42.830;24.390;2023-07-16T18:05:06;19.42;;;12.23;;
32242;SDS011;18731;42.830;24.390;2023-07-16T18:07:38;17.58;;;12.60;;
32242;SDS011;18731;42.830;24.390;2023-07-16T18:10:03;19.90;;;13.13;;
32242;SDS011;18731;42.830;24.390;2023-07-16T18:12:29;17.33;;;12.75;;
32242;SDS011;18731;42.830;24.390;2023-07-16T18:14:55;18.13;;;13.35;;
32242;SDS011;18731;42.830;24.390;2023-07-16T18:17:22;22.80;;;12.85;;
32242;SDS011;18731;42.830;24.390;2023-07-16T18:19:47;21.83;;;13.43;;
32242;SDS011;18731;42.830;24.390;2023-07-16T18:22:13;20.00;;;14.40;;
32242;SDS011;18731;42.830;24.390;2023-07-16T18:24:39;19.58;;;13.82;;
32242;SDS011;18731;42.830;24.390;2023-07-16T18:27:04;21.80;;;14.30;;
32242;SDS011;18731;42.830;24.390;2023-07-16T18:29:32;19.52;;;13.38;;
32242;SDS011;18731;42.830;24.390;2023-07-16T18:31:58;18.17;;;14.30;;
32242;SDS011;18731;42.830;24.390;2023-07-16T18:34:24;19.63;;;14.00;;
32242;SDS011;18731;42.830;24.390;2023-07-16T18:36:50;19.48;;;13.40;;
32242;SDS011;18731;42.830;24.390;2023-07-16T18:39:16;21.90;;;13.68;;
32242;SDS011;18731;42.830;24.390;2023-07-16T18:41:42;22.83;;;14.40;;
32242;SDS011;18731;42.830;24.390;2023-07-16T18:44:07;16.65;;;13.52;;
32242;SDS011;18731;42.830;24.390;2023-07-16T18:46:37;17.70;;;13.63;;
32242;SDS011;18731;42.830;24.390;2023-07-16T18:49:05;20.30;;;14.32;;
32242;SDS011;18731;42.830;24.390;2023-07-16T18:51:32;19.60;;;14.80;;
32242;SDS011;18731;42.830;24.390;2023-07-16T18:53:58;20.88;;;15.32;;
32242;SDS011;18731;42.830;24.390;2023-07-16T18:56:23;23.60;;;14.48;;
32242;SDS011;18731;42.830;24.390;2023-07-16T18:58:49;20.00;;;14.48;;
32242;SDS011;18731;42.830;24.390;2023-07-16T19:01:14;20.50;;;14.02;;
32242;SDS011;18731;42.830;24.390;2023-07-16T19:03:40;22.13;;;15.02;;
32242;SDS011;18731;42.830;24.390;2023-07-16T19:06:06;24.40;;;14.52;;
32242;SDS011;18731;42.830;24.390;2023-07-16T19:08:32;24.42;;;14.40;;
32242;SDS011;18731;42.830;24.390;2023-07-16T19:10:57;19.08;;;14.85;;
32242;SDS011;18731;42.830;24.390;2023-07-16T19:13:23;21.40;;;14.27;;
32242;SDS011;18731;42.830;24.390;2023-07-16T19:15:48;18.38;;;13.80;;
32242;SDS011;18731;42.830;24.390;2023-07-16T19:18:17;21.77;;;14.80;;
32242;SDS011;18731;42.830;24.390;2023-07-16T19:20:43;19.85;;;14.52;;
32242;SDS011;18731;42.830;24.390;2023-07-16T19:23:10;21.85;;;14.80;;
32242;SDS011;18731;42.830;24.390;2023-07-16T19:25:37;17.05;;;13.90;;
32242;SDS011;18731;42.830;24.390;2023-07-16T19:28:02;17.92;;;14.23;;
32242;SDS011;18731;42.830;24.390;2023-07-16T19:30:28;22.95;;;14.65;;
32242;SDS011;18731;42.830;24.390;2023-07-16T19:35:44;20.20;;;13.93;;
32242;SDS011;18731;42.830;24.390;2023-07-16T19:38:10;18.38;;;14.88;;
32242;SDS011;18731;42.830;24.390;2023-07-16T19:40:36;20.30;;;15.18;;
32242;SDS011;18731;42.830;24.390;2023-07-16T19:43:02;17.35;;;14.75;;
32242;SDS011;18731;42.830;24.390;2023-07-16T19:45:27;21.42;;;14.88;;
32242;SDS011;18731;42.830;24.390;2023-07-16T19:47:53;19.48;;;14.10;;
32242;SDS011;18731;42.830;24.390;2023-07-16T19:50:19;18.73;;;14.45;;
32242;SDS011;18731;42.830;24.390;2023-07-16T19:52:45;21.70;;;14.98;;
32242;SDS011;18731;42.830;24.390;2023-07-16T19:55:10;20.88;;;15.10;;
32242;SDS011;18731;42.830;24.390;2023-07-16T19:57:36;19.20;;;14.43;;
32242;SDS011;18731;42.830;24.390;2023-07-16T20:00:03;18.38;;;14.35;;
32242;SDS011;18731;42.830;24.390;2023-07-16T20:02:35;18.75;;;15.63;;
32242;SDS011;18731;42.830;24.390;2023-07-16T20:05:01;20.27;;;15.32;;
32242;SDS011;18731;42.830;24.390;2023-07-16T20:07:30;22.20;;;15.35;;
32242;SDS011;18731;42.830;24.390;2023-07-16T20:10:01;25.13;;;15.40;;
32242;SDS011;18731;42.830;24.390;2023-07-16T20:12:29;17.48;;;14.68;;
32242;SDS011;18731;42.830;24.390;2023-07-16T20:14:55;19.92;;;15.48;;
32242;SDS011;18731;42.830;24.390;2023-07-16T20:17:21;22.38;;;14.45;;
32242;SDS011;18731;42.830;24.390;2023-07-16T20:19:47;21.02;;;15.27;;
32242;SDS011;18731;42.830;24.390;2023-07-16T20:22:12;19.17;;;14.00;;
32242;SDS011;18731;42.830;24.390;2023-07-16T20:24:39;18.75;;;15.40;;
32242;SDS011;18731;42.830;24.390;2023-07-16T20:27:04;20.25;;;15.00;;
32242;SDS011;18731;42.830;24.390;2023-07-16T20:29:30;22.17;;;14.88;;
32242;SDS011;18731;42.830;24.390;2023-07-16T20:31:56;19.45;;;15.07;;
32242;SDS011;18731;42.830;24.390;2023-07-16T20:34:21;18.95;;;14.10;;
32242;SDS011;18731;42.830;24.390;2023-07-16T20:36:47;22.33;;;15.40;;
32242;SDS011;18731;42.830;24.390;2023-07-16T20:39:13;20.50;;;15.25;;
32242;SDS011;18731;42.830;24.390;2023-07-16T20:41:39;21.33;;;14.70;;
32242;SDS011;18731;42.830;24.390;2023-07-16T20:44:04;22.33;;;14.05;;
32242;SDS011;18731;42.830;24.390;2023-07-16T20:46:30;19.25;;;15.25;;
32242;SDS011;18731;42.830;24.390;2023-07-16T20:48:56;18.42;;;15.32;;